Time;durP1;ratioP1;P1;durP2;ratioP2;P2;SDS_P1;SDS_P2;PMS_P1;PMS_P2;Temp;Humidity;BMP_temperature;BMP_pressure;BME280_temperature;BME280_humidity;BME280_pressure;Samples;Min_cycle;Max_cycle;Signal;HPM_P1;HPM_P2
2022/04/27 00:00:03;;;;;;;27.33;19.77;;;9.30;99.90;;;;;;4877497;29;20060;-39
2022/04/27 00:02:30;;;;;;;12.93;10.93;;;9.30;99.90;;;;;;4877511;29;20030;-39
2022/04/27 00:04:57;;;;;;;16.08;10.57;;;9.30;99.90;;;;;;4877530;29;20027;-47
2022/04/27 00:07:22;;;;;;;12.25;10.48;;;9.20;99.90;;;;;;4876960;29;20111;-43
2022/04/27 00:09:48;;;;;;;12.27;10.57;;;9.10;99.90;;;;;;4877411;29;20029;-39
2022/04/27 00:12:13;;;;;;;16.65;10.38;;;9.10;99.90;;;;;;4876980;29;20536;-42
2022/04/27 00:14:39;;;;;;;19.85;14.27;;;9.00;99.90;;;;;;4877272;29;20029;-48
2022/04/27 00:17:05;;;;;;;23.08;17.58;;;9.00;99.90;;;;;;4876724;29;20497;-48
2022/04/27 00:19:30;;;;;;;14.95;11.45;;;9.00;99.90;;;;;;4876910;29;20859;-46
2022/04/27 00:21:56;;;;;;;14.15;11.70;;;8.90;99.90;;;;;;4876927;29;20449;-38
2022/04/27 00:24:22;;;;;;;12.27;10.98;;;8.90;99.90;;;;;;4875588;29;20029;-48
2022/04/27 00:26:47;;;;;;;12.52;10.23;;;8.80;99.90;;;;;;4876751;29;20032;-44
2022/04/27 00:29:13;;;;;;;16.30;12.15;;;8.80;99.90;;;;;;4876444;29;20056;-43
2022/04/27 00:31:38;;;;;;;14.23;11.90;;;8.70;99.90;;;;;;4876891;29;20080;-44
2022/04/27 00:34:04;;;;;;;13.30;10.73;;;8.70;99.90;;;;;;4876431;29;20133;-42
2022/04/27 00:36:31;;;;;;;13.25;10.95;;;8.70;99.90;;;;;;4876524;29;20060;-43
2022/04/27 00:38:57;;;;;;;14.25;10.93;;;8.60;99.90;;;;;;4876612;29;20025;-39
2022/04/27 00:41:23;;;;;;;13.00;11.25;;;8.60;99.90;;;;;;4877387;29;20029;-43
2022/04/27 00:43:48;;;;;;;17.20;12.95;;;8.60;99.90;;;;;;4877346;29;20112;-47
2022/04/27 00:46:14;;;;;;;16.50;11.80;;;8.50;99.90;;;;;;4877127;29;20586;-46
2022/04/27 00:48:40;;;;;;;12.15;10.65;;;8.40;99.90;;;;;;4876841;29;20028;-42
2022/04/27 00:51:06;;;;;;;16.17;11.70;;;8.30;99.90;;;;;;4876846;29;20053;-43
2022/04/27 00:53:33;;;;;;;16.40;11.90;;;8.30;99.90;;;;;;4876941;29;20115;-43
2022/04/27 00:55:59;;;;;;;20.08;13.30;;;8.30;99.90;;;;;;4876984;29;20174;-45
2022/04/27 00:58:26;;;;;;;19.73;12.77;;;8.20;99.90;;;;;;4876039;29;20029;-46
2022/04/27 01:00:52;;;;;;;18.75;13.80;;;8.20;99.90;;;;;;4876605;29;20056;-46
2022/04/27 01:03:19;;;;;;;14.90;12.88;;;8.20;99.90;;;;;;4876314;29;20076;-43
2022/04/27 01:05:45;;;;;;;17.23;14.50;;;8.10;99.90;;;;;;4876300;29;20076;-49
2022/04/27 01:08:11;;;;;;;16.17;13.85;;;8.10;99.90;;;;;;4890691;29;20032;-42
2022/04/27 01:10:37;;;;;;;16.70;13.35;;;8.00;99.90;;;;;;4876035;29;20493;-47
2022/04/27 01:13:05;;;;;;;17.20;13.55;;;8.00;99.90;;;;;;4876386;29;20128;-44
2022/04/27 01:15:32;;;;;;;17.75;14.00;;;7.90;99.90;;;;;;4875004;28;20044;-43
2022/04/27 01:17:57;;;;;;;19.02;14.50;;;7.90;99.90;;;;;;4876043;29;20029;-43
2022/04/27 01:20:23;;;;;;;20.40;14.15;;;7.80;99.90;;;;;;4876346;29;20029;-45
2022/04/27 01:22:48;;;;;;;15.98;14.02;;;7.80;99.90;;;;;;4876155;29;20388;-43
2022/04/27 01:25:14;;;;;;;16.25;13.98;;;7.80;99.90;;;;;;4875879;29;20576;-44
2022/04/27 01:27:43;;;;;;;15.10;13.52;;;7.70;99.90;;;;;;4876020;29;20079;-43
2022/04/27 01:30:10;;;;;;;18.38;15.13;;;7.70;99.90;;;;;;4875868;29;20028;-47
2022/04/27 01:32:36;;;;;;;16.42;14.25;;;7.60;99.90;;;;;;4876179;29;20025;-43
2022/04/27 01:35:02;;;;;;;20.90;16.48;;;7.60;99.90;;;;;;4875881;29;20033;-42
2022/04/27 01:40:11;;;;;;;19.88;15.30;;;7.70;99.90;;;;;;4875700;29;20044;-42
2022/04/27 01:42:37;;;;;;;19.60;15.05;;;7.60;99.90;;;;;;4875652;29;20045;-47
2022/04/27 01:45:03;;;;;;;18.83;14.68;;;7.60;99.90;;;;;;4874609;29;20405;-43
2022/04/27 01:47:29;;;;;;;17.15;13.93;;;7.60;99.90;;;;;;4875391;29;20049;-38
2022/04/27 01:49:54;;;;;;;18.02;13.80;;;7.50;99.90;;;;;;4875409;29;20071;-46
2022/04/27 01:55:05;;;;;;;16.40;14.07;;;7.50;99.90;;;;;;4875870;29;20512;-44
2022/04/27 01:57:30;;;;;;;18.17;15.02;;;7.50;99.90;;;;;;4875622;29;20060;-43
2022/04/27 01:59:56;;;;;;;20.23;14.70;;;7.50;99.90;;;;;;4875664;29;20083;-42
2022/04/27 02:02:21;;;;;;;18.45;13.68;;;7.40;99.90;;;;;;4875283;29;20029;-44
2022/04/27 02:04:47;;;;;;;18.77;15.07;;;7.50;99.90;;;;;;4875195;29;20113;-47
2022/04/27 02:07:13;;;;;;;19.50;15.00;;;7.40;99.90;;;;;;4875503;29;20036;-42
2022/04/27 02:09:38;;;;;;;21.90;15.13;;;7.40;99.90;;;;;;4875377;29;20025;-42
2022/04/27 02:12:05;;;;;;;19.30;14.57;;;7.40;99.90;;;;;;4889452;29;20587;-48
2022/04/27 02:14:31;;;;;;;15.48;12.68;;;7.30;99.90;;;;;;4875278;29;20029;-45
2022/04/27 02:16:57;;;;;;;17.63;13.43;;;7.30;99.90;;;;;;4875100;29;20390;-45
2022/04/27 02:19:23;;;;;;;15.90;13.43;;;7.30;99.90;;;;;;4875459;29;20029;-50
2022/04/27 02:21:48;;;;;;;14.30;12.48;;;7.20;99.90;;;;;;4875429;29;20031;-39
2022/04/27 02:24:14;;;;;;;15.63;13.02;;;7.20;99.90;;;;;;4875355;29;20038;-45
2022/04/27 02:26:42;;;;;;;14.93;12.77;;;7.20;99.90;;;;;;4875342;29;20049;-44
2022/04/27 02:29:09;;;;;;;16.75;14.07;;;7.10;99.90;;;;;;4875132;29;20080;-43
2022/04/27 02:31:34;;;;;;;20.85;15.73;;;7.20;99.90;;;;;;4874953;29;20033;-43
2022/04/27 02:34:00;;;;;;;19.75;15.65;;;7.20;99.90;;;;;;4875061;29;20396;-43
2022/04/27 02:36:25;;;;;;;22.17;16.13;;;7.20;99.90;;;;;;4875105;29;20485;-48
2022/04/27 02:38:51;;;;;;;18.65;14.90;;;7.20;99.90;;;;;;4874714;29;20033;-44
2022/04/27 02:41:17;;;;;;;20.05;16.33;;;7.20;99.90;;;;;;4875173;29;20112;-39
2022/04/27 02:43:42;;;;;;;18.50;15.15;;;7.20;99.90;;;;;;4874786;29;20045;-43
2022/04/27 02:46:08;;;;;;;19.30;15.25;;;7.20;99.90;;;;;;4874994;29;20017;-48
2022/04/27 02:48:33;;;;;;;18.23;13.82;;;7.20;99.90;;;;;;4873306;29;20497;-45
2022/04/27 02:53:43;;;;;;;18.42;14.10;;;7.20;99.90;;;;;;4877168;29;20036;-47
2022/04/27 02:56:08;;;;;;;19.35;14.30;;;7.10;99.90;;;;;;4878148;29;20037;-49
2022/04/27 02:58:34;;;;;;;18.08;14.45;;;7.10;99.90;;;;;;4877778;29;20409;-44
2022/04/27 03:00:59;;;;;;;19.10;15.25;;;7.10;99.90;;;;;;4877907;29;20044;-39
2022/04/27 03:03:25;;;;;;;17.52;14.65;;;7.10;99.90;;;;;;4877855;29;20085;-48
2022/04/27 03:05:50;;;;;;;18.88;14.57;;;7.10;99.90;;;;;;4892353;29;20033;-43
2022/04/27 03:08:16;;;;;;;18.25;14.15;;;7.10;99.90;;;;;;4877161;29;20035;-45
2022/04/27 03:10:41;;;;;;;16.40;13.50;;;7.00;99.90;;;;;;4878255;29;20049;-40
2022/04/27 03:13:07;;;;;;;15.32;12.60;;;6.90;99.90;;;;;;4877876;29;20036;-50
2022/04/27 03:15:33;;;;;;;18.23;12.93;;;6.80;99.90;;;;;;4876815;29;20730;-43
2022/04/27 03:18:17;;;;;;;12.80;11.18;;;6.80;99.90;;;;;;4877634;29;20021;-45
2022/04/27 03:20:42;;;;;;;14.30;11.23;;;6.70;99.90;;;;;;4877336;29;20037;-47
2022/04/27 03:23:07;;;;;;;14.88;11.75;;;6.70;99.90;;;;;;4877402;29;20088;-42
2022/04/27 03:25:33;;;;;;;14.88;11.55;;;6.70;99.90;;;;;;4876532;29;20036;-44
2022/04/27 03:27:59;;;;;;;16.25;11.00;;;6.70;99.90;;;;;;4876709;29;20116;-45
2022/04/27 03:30:24;;;;;;;11.38;10.18;;;6.80;99.90;;;;;;4877975;29;20031;-48
2022/04/27 03:32:50;;;;;;;12.70;10.55;;;6.70;99.90;;;;;;4877711;29;20051;-39
2022/04/27 03:35:15;;;;;;;14.18;10.85;;;6.70;99.90;;;;;;4877842;29;20029;-44
2022/04/27 03:37:41;;;;;;;16.33;12.43;;;6.70;99.90;;;;;;4877487;29;20033;-46
2022/04/27 03:40:09;;;;;;;18.23;14.27;;;6.70;99.90;;;;;;4877115;29;20033;-48
2022/04/27 03:42:35;;;;;;;20.23;15.18;;;6.70;99.90;;;;;;4877207;29;20039;-46
2022/04/27 03:45:00;;;;;;;18.63;15.25;;;6.70;99.90;;;;;;4891705;29;20029;-48
2022/04/27 03:47:26;;;;;;;16.90;13.80;;;6.70;99.90;;;;;;4877454;29;20036;-44
2022/04/27 03:49:52;;;;;;;19.90;14.95;;;6.70;99.90;;;;;;4878591;29;20393;-43
2022/04/27 03:52:18;;;;;;;28.23;19.92;;;6.60;99.90;;;;;;4877840;29;20504;-42
2022/04/27 03:54:43;;;;;;;28.40;19.67;;;6.70;99.90;;;;;;4877297;29;20036;-40
2022/04/27 03:57:09;;;;;;;33.85;22.50;;;6.80;99.90;;;;;;4877152;29;20025;-50
2022/04/27 03:59:35;;;;;;;36.28;23.20;;;6.90;99.90;;;;;;4877302;29;20040;-44
2022/04/27 04:02:01;;;;;;;30.20;21.35;;;6.90;99.90;;;;;;4877388;29;20111;-39
2022/04/27 04:04:26;;;;;;;32.10;22.60;;;6.90;99.90;;;;;;4875983;29;20556;-42
2022/04/27 04:06:52;;;;;;;31.33;21.85;;;7.00;99.90;;;;;;4876889;29;20033;-44
2022/04/27 04:09:17;;;;;;;31.85;22.50;;;7.00;99.90;;;;;;4876794;29;20039;-44
2022/04/27 04:11:43;;;;;;;34.20;23.55;;;7.00;99.90;;;;;;4877094;29;20544;-45
2022/04/27 04:14:08;;;;;;;28.45;19.90;;;6.90;99.90;;;;;;4877047;29;20037;-42
2022/04/27 04:16:34;;;;;;;23.40;16.77;;;6.90;99.90;;;;;;4876605;29;20552;-44
2022/04/27 04:19:00;;;;;;;24.10;17.13;;;6.80;99.90;;;;;;4891353;29;20035;-46
2022/04/27 04:21:26;;;;;;;26.50;19.02;;;6.80;99.90;;;;;;4877187;29;20017;-43
2022/04/27 04:23:51;;;;;;;28.02;17.05;;;6.90;99.90;;;;;;4876809;29;20025;-39
2022/04/27 04:29:01;;;;;;;29.75;20.30;;;6.80;99.90;;;;;;4877522;29;20032;-48
2022/04/27 04:31:26;;;;;;;30.40;20.27;;;6.80;99.90;;;;;;4876672;29;20037;-48
2022/04/27 04:33:52;;;;;;;27.80;20.52;;;6.80;99.90;;;;;;4876722;29;20068;-44
2022/04/27 04:36:18;;;;;;;30.08;21.45;;;6.80;99.90;;;;;;4876643;29;20136;-40
2022/04/27 04:38:43;;;;;;;30.75;22.27;;;6.80;99.90;;;;;;4876488;29;20037;-46
2022/04/27 04:41:09;;;;;;;32.55;22.33;;;6.90;99.90;;;;;;4877015;29;20041;-42
2022/04/27 04:43:34;;;;;;;28.40;19.98;;;6.90;99.90;;;;;;4876897;29;20037;-47
2022/04/27 04:46:00;;;;;;;30.27;21.27;;;6.90;99.90;;;;;;4876717;29;20041;-46
2022/04/27 04:48:26;;;;;;;28.88;19.58;;;6.90;99.90;;;;;;4876410;29;20025;-45
2022/04/27 04:50:51;;;;;;;27.35;19.58;;;7.00;99.90;;;;;;4876685;29;20039;-45
2022/04/27 04:53:20;;;;;;;26.63;18.95;;;7.00;99.90;;;;;;4876548;29;20465;-45
2022/04/27 04:55:45;;;;;;;25.73;18.77;;;7.10;99.90;;;;;;4875734;29;20040;-45
2022/04/27 04:58:11;;;;;;;23.55;16.52;;;7.20;99.90;;;;;;4876268;29;20037;-47
2022/04/27 05:00:37;;;;;;;21.60;16.00;;;7.30;99.90;;;;;;4876452;29;20150;-44
2022/04/27 05:03:03;;;;;;;18.42;13.43;;;7.50;99.90;;;;;;4876768;29;20025;-46
2022/04/27 05:05:28;;;;;;;17.40;13.52;;;7.70;99.90;;;;;;4875345;29;20092;-48
2022/04/27 05:07:54;;;;;;;21.27;14.65;;;7.80;99.90;;;;;;4875497;29;20025;-46
2022/04/27 05:10:19;;;;;;;19.02;14.02;;;8.00;99.90;;;;;;4876259;29;20477;-45
2022/04/27 05:12:45;;;;;;;17.48;13.05;;;8.10;99.90;;;;;;4875282;29;20033;-45
2022/04/27 05:15:12;;;;;;;15.10;11.98;;;8.20;99.90;;;;;;4875531;29;20033;-44
2022/04/27 05:17:37;;;;;;;14.32;11.65;;;8.30;99.90;;;;;;4875631;29;20032;-45
2022/04/27 05:20:04;;;;;;;19.58;15.05;;;8.40;99.90;;;;;;4876115;28;20029;-47
2022/04/27 05:22:34;;;;;;;27.60;16.00;;;8.50;99.90;;;;;;4867077;28;20033;-45
2022/04/27 05:25:04;;;;;;;19.35;15.82;;;8.50;99.90;;;;;;4856593;29;20083;-45
2022/04/27 05:27:30;;;;;;;19.33;16.25;;;8.50;99.90;;;;;;4857676;29;20440;-45
2022/04/27 05:32:44;;;;;;;20.92;14.90;;;8.50;99.90;;;;;;4857579;29;20084;-46
2022/04/27 05:35:10;;;;;;;16.02;13.60;;;8.80;99.90;;;;;;4869775;29;20087;-49
2022/04/27 05:37:37;;;;;;;18.27;14.55;;;9.10;99.90;;;;;;4876433;29;20029;-49
2022/04/27 05:40:03;;;;;;;16.83;13.88;;;9.50;99.90;;;;;;4871727;29;20037;-45
2022/04/27 05:44:58;;;;;;;18.92;14.30;;;9.90;99.90;;;;;;4987905;23;20051;-43
2022/04/27 05:47:25;;;;;;;17.70;14.57;;;10.10;99.90;;;;;;4972574;28;20030;-43
2022/04/27 05:49:51;;;;;;;19.60;14.05;;;10.30;99.90;;;;;;4959232;28;20126;-43
2022/04/27 05:52:17;;;;;;;16.98;14.77;;;10.30;99.90;;;;;;4955383;28;20492;-41
2022/04/27 05:54:42;;;;;;;19.05;16.40;;;10.20;99.90;;;;;;4970594;28;20033;-45
2022/04/27 05:57:08;;;;;;;18.05;14.68;;;9.90;99.90;;;;;;4979205;28;20106;-41
2022/04/27 05:59:34;;;;;;;16.88;14.60;;;9.80;99.90;;;;;;4969654;28;20035;-43
2022/04/27 06:01:59;;;;;;;23.60;15.55;;;9.60;99.90;;;;;;4953736;28;20042;-42
2022/04/27 06:04:26;;;;;;;21.90;17.80;;;9.60;99.90;;;;;;4953798;28;20031;-43
2022/04/27 06:06:54;;;;;;;21.98;15.68;;;9.50;99.90;;;;;;4953451;28;20051;-38
2022/04/27 06:09:20;;;;;;;21.52;17.38;;;9.40;99.90;;;;;;4953848;29;20367;-41
2022/04/27 06:11:46;;;;;;;20.33;16.67;;;9.40;99.90;;;;;;4968262;28;20038;-42
2022/04/27 06:14:12;;;;;;;23.65;18.77;;;9.40;99.90;;;;;;4953582;28;20027;-40
2022/04/27 06:16:37;;;;;;;19.00;16.95;;;9.60;99.90;;;;;;4953663;28;20051;-43
2022/04/27 06:19:04;;;;;;;20.80;17.42;;;9.80;99.90;;;;;;4966122;28;20495;-42
2022/04/27 06:21:33;;;;;;;20.02;15.70;;;10.00;99.90;;;;;;4972350;28;20406;-42
2022/04/27 06:24:00;;;;;;;23.65;17.25;;;10.20;99.90;;;;;;4971075;28;20398;-41
2022/04/27 06:26:26;;;;;;;19.92;16.63;;;10.50;99.90;;;;;;4972626;28;20550;-42
2022/04/27 06:28:52;;;;;;;21.85;17.38;;;10.60;99.90;;;;;;4971706;28;20019;-43
2022/04/27 06:31:18;;;;;;;21.00;16.80;;;10.80;99.90;;;;;;4972612;28;20106;-42
2022/04/27 06:33:43;;;;;;;22.30;16.42;;;10.80;99.90;;;;;;4972117;28;20035;-42
2022/04/27 06:36:09;;;;;;;18.73;15.75;;;10.80;99.90;;;;;;4972384;28;20027;-44
2022/04/27 06:38:34;;;;;;;18.90;16.23;;;11.10;99.90;;;;;;4972246;28;20101;-43
2022/04/27 06:41:02;;;;;;;19.38;16.38;;;11.40;99.90;;;;;;4972632;28;20419;-43
2022/04/27 06:43:27;;;;;;;21.10;17.40;;;11.50;99.90;;;;;;4972380;28;20034;-45
2022/04/27 06:45:53;;;;;;;19.38;16.83;;;11.30;99.90;;;;;;4987767;28;20019;-45
2022/04/27 06:48:18;;;;;;;19.65;16.42;;;11.20;99.90;;;;;;4972488;28;20015;-47
2022/04/27 06:50:44;;;;;;;22.48;17.40;;;11.30;99.90;;;;;;4972759;28;20030;-42
2022/04/27 06:53:10;;;;;;;22.35;18.88;;;11.20;99.90;;;;;;4972820;28;20434;-45
2022/04/27 06:55:36;;;;;;;25.45;17.90;;;11.00;99.90;;;;;;4972330;28;20499;-41
2022/04/27 06:58:02;;;;;;;21.48;17.80;;;11.10;99.90;;;;;;4972282;28;20391;-46
2022/04/27 07:00:27;;;;;;;20.85;18.30;;;11.30;99.90;;;;;;4971841;28;20138;-45
2022/04/27 07:02:53;;;;;;;19.15;16.65;;;11.50;99.90;;;;;;4972701;28;20455;-41
2022/04/27 07:05:20;;;;;;;21.02;18.20;;;11.90;99.90;;;;;;4972635;28;20061;-42
2022/04/27 07:07:46;;;;;;;26.88;19.90;;;12.00;99.90;;;;;;4972497;28;20059;-42
2022/04/27 07:10:13;;;;;;;22.25;17.45;;;12.20;99.90;;;;;;4972878;28;20023;-41
2022/04/27 07:12:39;;;;;;;22.85;18.20;;;12.30;99.90;;;;;;4972299;28;20077;-42
2022/04/27 07:15:05;;;;;;;22.77;18.92;;;12.60;99.90;;;;;;4972890;28;20062;-44
2022/04/27 07:17:31;;;;;;;23.58;19.25;;;12.70;99.90;;;;;;4972545;28;20035;-43
2022/04/27 07:19:57;;;;;;;22.60;18.63;;;12.50;99.90;;;;;;4972499;28;20038;-43
2022/04/27 07:22:23;;;;;;;23.98;19.88;;;12.30;99.90;;;;;;4972777;28;20463;-44
2022/04/27 07:24:49;;;;;;;22.55;19.15;;;12.10;99.90;;;;;;4972569;28;20038;-43
2022/04/27 07:27:16;;;;;;;27.60;18.48;;;11.90;99.90;;;;;;4972298;28;20031;-43
2022/04/27 07:29:41;;;;;;;23.92;18.48;;;12.00;99.90;;;;;;4972371;28;20065;-46
2022/04/27 07:32:07;;;;;;;25.80;18.95;;;12.10;99.90;;;;;;4972108;28;20113;-43
2022/04/27 07:34:33;;;;;;;25.35;19.88;;;12.00;99.90;;;;;;4972395;28;20030;-44
2022/04/27 07:37:00;;;;;;;22.35;18.75;;;12.00;99.90;;;;;;4987054;28;20031;-41
2022/04/27 07:39:26;;;;;;;24.10;19.63;;;11.80;99.90;;;;;;4974433;28;20030;-42
2022/04/27 07:41:51;;;;;;;26.08;19.90;;;11.60;99.90;;;;;;4976471;28;20038;-43
2022/04/27 07:44:17;;;;;;;21.42;19.13;;;11.80;99.90;;;;;;4975830;28;20039;-40
2022/04/27 07:46:47;;;;;;;25.73;18.20;;;12.10;99.90;;;;;;4975863;28;20031;-43
2022/04/27 07:49:19;;;;;;;20.83;17.40;;;12.40;99.90;;;;;;4975805;28;20030;-42
2022/04/27 07:51:46;;;;;;;23.75;18.13;;;12.90;99.90;;;;;;4976066;28;20077;-42
2022/04/27 07:54:12;;;;;;;26.00;16.83;;;13.20;99.90;;;;;;4975681;28;20035;-44
2022/04/27 07:56:38;;;;;;;20.92;16.52;;;13.90;99.90;;;;;;4975728;28;20368;-44
2022/04/27 07:59:04;;;;;;;19.90;15.90;;;14.70;99.90;;;;;;4975567;28;20126;-44
2022/04/27 08:01:30;;;;;;;17.52;14.85;;;14.80;99.90;;;;;;4975787;28;20534;-44
2022/04/27 08:03:56;;;;;;;18.50;15.95;;;15.40;99.90;;;;;;4976618;28;20082;-44
2022/04/27 08:06:21;;;;;;;17.83;15.25;;;15.50;99.90;;;;;;4976913;28;20387;-44
2022/04/27 08:08:47;;;;;;;21.98;16.48;;;15.60;99.90;;;;;;4976078;28;20023;-44
2022/04/27 08:11:13;;;;;;;19.67;16.42;;;15.90;99.90;;;;;;4975537;28;20515;-43
2022/04/27 08:13:39;;;;;;;20.42;16.83;;;16.00;99.90;;;;;;4975622;28;20034;-44
2022/04/27 08:16:07;;;;;;;18.38;16.40;;;15.90;99.90;;;;;;4975519;28;20023;-44
2022/04/27 08:18:34;;;;;;;20.48;15.48;;;16.50;99.90;;;;;;4975349;28;20506;-44
2022/04/27 08:21:15;;;;;;;19.83;15.55;;;16.20;99.90;;;;;;4975160;28;20023;-44
2022/04/27 08:23:43;;;;;;;17.75;15.60;;;16.50;99.60;;;;;;4975156;28;20061;-45
2022/04/27 08:26:12;;;;;;;17.85;15.98;;;16.90;99.50;;;;;;4973662;28;20023;-44
2022/04/27 08:28:40;;;;;;;21.23;17.33;;;17.00;99.30;;;;;;4974453;28;20054;-47
2022/04/27 08:31:07;;;;;;;18.30;16.20;;;16.80;99.10;;;;;;4974784;28;20470;-48
2022/04/27 08:33:34;;;;;;;18.83;16.67;;;16.90;98.90;;;;;;4974459;28;20031;-45
2022/04/27 08:36:00;;;;;;;22.83;16.48;;;15.60;99.90;;;;;;4974763;28;20027;-45
2022/04/27 08:38:26;;;;;;;18.58;16.63;;;16.10;99.90;;;;;;4974608;28;20034;-49
2022/04/27 08:40:52;;;;;;;21.85;16.77;;;16.30;99.40;;;;;;4974006;28;20078;-50
2022/04/27 08:43:18;;;;;;;18.92;16.95;;;16.30;99.70;;;;;;4973600;28;20062;-46
2022/04/27 08:45:45;;;;;;;17.27;15.35;;;16.10;99.80;;;;;;4973822;28;20022;-46
2022/04/27 08:48:13;;;;;;;18.92;16.88;;;16.30;99.90;;;;;;4973984;28;20029;-52
2022/04/27 08:50:40;;;;;;;23.52;17.83;;;15.70;99.90;;;;;;4974422;28;20026;-46
2022/04/27 08:53:06;;;;;;;24.75;17.77;;;15.10;99.90;;;;;;4974342;28;20058;-51
2022/04/27 08:55:32;;;;;;;23.65;18.13;;;15.30;99.90;;;;;;4974108;28;20458;-46
2022/04/27 08:58:10;;;;;;;19.85;17.15;;;15.40;99.90;;;;;;4973977;28;20061;-48
2022/04/27 09:00:37;;;;;;;23.40;17.88;;;15.30;99.90;;;;;;4989436;28;20031;-46
2022/04/27 09:03:28;;;;;;;21.67;17.05;;;15.00;99.90;;;;;;4974276;28;20027;-47
2022/04/27 09:05:59;;;;;;;21.73;17.58;;;14.90;99.90;;;;;;4986114;28;20039;-48
2022/04/27 09:08:41;;;;;;;24.75;17.63;;;14.90;99.90;;;;;;4954210;28;20046;-48
2022/04/27 09:11:15;;;;;;;20.08;16.38;;;15.10;99.90;;;;;;4982373;28;20406;-48
2022/04/27 09:13:55;;;;;;;20.40;17.05;;;15.20;99.90;;;;;;4979199;28;20081;-46
2022/04/27 09:16:23;;;;;;;19.70;17.60;;;15.50;99.90;;;;;;4974202;28;20034;-47
2022/04/27 09:22:01;;;;;;;19.17;16.83;;;15.20;99.90;;;;;;4960376;28;20059;-48
2022/04/27 09:24:28;;;;;;;18.13;16.20;;;15.60;99.90;;;;;;4976156;28;20031;-47
2022/04/27 09:26:58;;;;;;;19.10;16.00;;;16.00;99.90;;;;;;4977683;28;20059;-48
2022/04/27 09:29:25;;;;;;;18.33;14.65;;;16.20;99.90;;;;;;4961238;28;20015;-48
2022/04/27 09:31:59;;;;;;;19.08;15.82;;;16.30;99.90;;;;;;4973598;28;20030;-43
2022/04/27 09:34:28;;;;;;;17.00;15.20;;;16.30;99.90;;;;;;4993179;28;20046;-45
2022/04/27 09:36:55;;;;;;;19.33;16.05;;;16.30;99.90;;;;;;5008499;28;20034;-46
2022/04/27 09:39:27;;;;;;;20.10;15.90;;;15.60;99.90;;;;;;4993039;28;20066;-46
2022/04/27 09:42:01;;;;;;;18.75;14.60;;;15.80;99.90;;;;;;4969467;28;20050;-42
2022/04/27 09:44:30;;;;;;;22.55;15.60;;;16.10;99.90;;;;;;4959567;28;20039;-41
2022/04/27 09:46:58;;;;;;;20.77;16.00;;;16.00;99.90;;;;;;4984834;28;20046;-45
2022/04/27 09:49:24;;;;;;;17.27;15.07;;;15.80;99.90;;;;;;4993983;28;20100;-43
2022/04/27 09:51:51;;;;;;;17.73;14.05;;;15.70;99.90;;;;;;4980932;28;20030;-44
2022/04/27 09:54:19;;;;;;;17.88;14.27;;;15.60;99.90;;;;;;4973224;28;20022;-42
2022/04/27 09:56:56;;;;;;;20.15;15.35;;;15.60;99.90;;;;;;4973755;28;20019;-42
2022/04/27 09:59:26;;;;;;;16.88;15.15;;;15.40;99.90;;;;;;4982263;28;20027;-42
2022/04/27 10:01:55;;;;;;;19.08;15.75;;;15.30;99.90;;;;;;4972557;28;20027;-44
2022/04/27 10:04:22;;;;;;;18.25;15.38;;;15.40;99.90;;;;;;4974280;28;20031;-46
2022/04/27 10:06:49;;;;;;;21.00;16.23;;;15.50;99.90;;;;;;4973545;28;20033;-44
2022/04/27 10:09:15;;;;;;;16.33;14.63;;;15.60;99.90;;;;;;4973746;28;20090;-45
2022/04/27 10:11:42;;;;;;;18.30;15.20;;;15.80;99.90;;;;;;4972446;28;20080;-44
2022/04/27 10:14:08;;;;;;;18.13;14.80;;;16.00;99.90;;;;;;4973877;28;20026;-45
2022/04/27 10:16:35;;;;;;;19.02;15.63;;;15.90;99.90;;;;;;4971842;28;20037;-47
2022/04/27 10:19:00;;;;;;;18.73;14.32;;;15.70;99.90;;;;;;4961641;28;20086;-44
2022/04/27 10:21:39;;;;;;;18.60;15.15;;;15.90;99.90;;;;;;4972690;28;20062;-49
2022/04/27 10:24:07;;;;;;;31.77;25.65;;;16.20;99.90;;;;;;4956232;28;20041;-47
2022/04/27 10:26:33;;;;;;;19.63;16.83;;;16.30;99.90;;;;;;4953976;28;20020;-46
2022/04/27 10:29:01;;;;;;;21.58;14.57;;;16.20;99.90;;;;;;4968326;28;20118;-45
2022/04/27 10:31:47;;;;;;;15.85;13.65;;;16.20;99.90;;;;;;4972445;28;20490;-48
2022/04/27 10:34:22;;;;;;;14.50;12.80;;;16.10;99.90;;;;;;4972326;28;20031;-46
2022/04/27 10:36:59;;;;;;;15.93;13.80;;;16.10;99.90;;;;;;4969782;28;20073;-44
2022/04/27 10:39:29;;;;;;;16.33;12.63;;;16.20;99.90;;;;;;4972614;28;20438;-45
2022/04/27 10:42:03;;;;;;;21.67;13.05;;;16.10;99.90;;;;;;4956720;28;20015;-47
2022/04/27 10:44:48;;;;;;;13.40;12.02;;;16.20;99.90;;;;;;4952697;28;20043;-48
2022/04/27 10:47:18;;;;;;;15.25;12.30;;;16.00;99.90;;;;;;4951661;29;20019;-44
2022/04/27 10:49:51;;;;;;;15.75;12.65;;;16.10;99.90;;;;;;4965345;28;20035;-44
2022/04/27 10:52:22;;;;;;;12.40;10.18;;;16.20;99.90;;;;;;4971045;28;20089;-47
2022/04/27 10:54:48;;;;;;;13.27;10.57;;;16.20;99.60;;;;;;4965832;28;20555;-44
2022/04/27 10:57:39;;;;;;;11.40;10.20;;;16.20;99.90;;;;;;4956664;28;20167;-48
2022/04/27 11:00:06;;;;;;;11.13;9.90;;;16.30;99.70;;;;;;4971510;28;20035;-49
2022/04/27 11:02:32;;;;;;;10.23;9.23;;;16.40;98.70;;;;;;4972046;28;20027;-45
2022/04/27 11:04:58;;;;;;;8.00;6.68;;;16.40;99.10;;;;;;4972500;28;20483;-47
2022/04/27 11:07:29;;;;;;;9.40;7.57;;;16.40;97.70;;;;;;4971625;28;20058;-46
2022/04/27 11:10:09;;;;;;;11.05;9.85;;;16.20;96.80;;;;;;4972337;28;20034;-48
2022/04/27 11:12:39;;;;;;;13.70;11.90;;;16.30;99.50;;;;;;4972017;28;20244;-49
2022/04/27 11:15:06;;;;;;;12.05;9.75;;;16.20;99.60;;;;;;4975253;28;20044;-48
2022/04/27 11:17:35;;;;;;;10.93;9.82;;;16.20;98.80;;;;;;4975387;28;20097;-45
2022/04/27 11:20:03;;;;;;;10.35;9.32;;;16.10;99.20;;;;;;4975914;28;20027;-47
2022/04/27 11:22:37;;;;;;;9.05;8.25;;;16.20;99.00;;;;;;4975823;28;20054;-46
2022/04/27 11:25:05;;;;;;;11.27;8.90;;;16.30;98.50;;;;;;4975638;28;20317;-45
2022/04/27 11:27:33;;;;;;;8.98;8.07;;;16.30;98.00;;;;;;4975669;28;20023;-47
2022/04/27 11:30:00;;;;;;;12.50;8.57;;;16.20;97.80;;;;;;4975352;28;20022;-46
2022/04/27 11:32:28;;;;;;;11.55;8.45;;;16.30;98.70;;;;;;4975941;28;20030;-46
2022/04/27 11:34:53;;;;;;;14.20;8.63;;;16.40;98.00;;;;;;4975407;28;20383;-43
2022/04/27 11:37:20;;;;;;;9.32;7.65;;;16.40;98.10;;;;;;4975621;28;20089;-43
2022/04/27 11:39:48;;;;;;;8.02;6.68;;;16.60;96.90;;;;;;4975858;28;20041;-45
2022/04/27 11:42:16;;;;;;;8.07;6.45;;;16.60;95.70;;;;;;4975841;28;20113;-49
2022/04/27 11:45:00;;;;;;;10.38;7.45;;;16.50;96.60;;;;;;4975430;28;20031;-45
2022/04/27 11:47:28;;;;;;;7.95;5.97;;;16.60;96.70;;;;;;4975621;28;20022;-45
2022/04/27 11:50:04;;;;;;;7.88;5.53;;;16.50;94.30;;;;;;4975301;28;20019;-46
2022/04/27 11:52:31;;;;;;;7.60;6.00;;;16.50;95.00;;;;;;4975169;28;20114;-47
2022/04/27 11:55:08;;;;;;;9.65;7.88;;;16.40;94.80;;;;;;4975286;28;20501;-46
2022/04/27 11:57:34;;;;;;;11.20;6.60;;;16.60;95.40;;;;;;4975117;28;20027;-44
2022/04/27 12:00:02;;;;;;;6.53;5.93;;;16.70;96.30;;;;;;4924672;23;20045;-49
2022/04/27 12:02:28;;;;;;;7.10;6.30;;;16.90;95.80;;;;;;4876850;29;20036;-45
2022/04/27 12:04:58;;;;;;;9.30;7.18;;;17.00;95.40;;;;;;4891363;29;20025;-42
2022/04/27 12:07:24;;;;;;;12.20;7.70;;;17.10;93.80;;;;;;4876998;29;20080;-45
2022/04/27 12:10:00;;;;;;;73.85;50.13;;;17.20;92.70;;;;;;4890145;29;20108;-43
2022/04/27 12:12:27;;;;;;;7.88;7.10;;;17.20;92.70;;;;;;4896474;29;20025;-45
2022/04/27 12:14:54;;;;;;;6.57;4.95;;;17.20;94.10;;;;;;4896428;28;20029;-45
2022/04/27 12:17:44;;;;;;;5.97;5.43;;;17.30;93.80;;;;;;4914708;29;20032;-42
2022/04/27 12:20:22;;;;;;;5.93;4.05;;;17.30;92.10;;;;;;4914784;29;20488;-45
2022/04/27 12:22:55;;;;;;;4.15;3.80;;;17.20;92.60;;;;;;4914294;29;20058;-48
2022/04/27 12:25:31;;;;;;;6.38;4.07;;;17.30;91.30;;;;;;4928176;28;20021;-46
2022/04/27 12:27:56;;;;;;;;;;;17.20;92.40;;;;;;4914347;29;20035;-47
2022/04/27 12:30:22;;;;;;;4.38;4.07;;;17.30;90.20;;;;;;4896765;29;19908;-47
2022/04/27 12:32:48;;;;;;;5.40;4.15;;;17.40;90.30;;;;;;4894859;29;20643;-50
2022/04/27 12:38:09;;;;;;;4.78;3.53;;;17.10;90.70;;;;;;4895369;29;20123;-45
2022/04/27 12:40:34;;;;;;;4.15;3.40;;;16.90;88.20;;;;;;4895699;29;20496;-46
2022/04/27 12:43:05;;;;;;;6.45;3.20;;;16.90;88.00;;;;;;4893594;29;20033;-44
2022/04/27 12:45:31;;;;;;;5.03;3.20;;;17.00;89.10;;;;;;4894853;29;20028;-46
2022/04/27 12:47:57;;;;;;;4.05;3.65;;;17.30;88.00;;;;;;4894765;29;20488;-46
2022/04/27 12:50:23;;;;;;;3.90;3.53;;;17.20;87.30;;;;;;4894989;29;20099;-46
2022/04/27 12:52:49;;;;;;;5.00;3.55;;;17.30;88.30;;;;;;4894555;29;20461;-46
2022/04/27 12:55:20;;;;;;;4.40;2.90;;;17.40;88.70;;;;;;4894994;28;20029;-44